Highland, Wisconsin
Current Conditions -  °F | °C
As of 3:15 PM on Monday 22 Dec 2014 (Local Time) from KMRJ Reporting Station
Light Rain Light Rain  
Wind Chill: 27°   Ceiling: 500
Heat Index: 36°   Visibility: 2mi
Dew Point: 34°   Wind: 13mph
Humidity: 93%   Direction: 90°E
Pressure: 29.6"   Gusts: NA
Location:  43.05°N, 90.38°W
Report Text: KMRJ 222115Z AUTO 09011KT 2SM -RA OVC005 02/01 A2960 RMK AO2
Loading
Personal Weather Stations






























Interactive Weather Map New forecast layout! Learn more

10-Day Weather Forecast

Advertisements
Track Severe Weather on mobile